Time,TemperatureF,DewpointF,PressureIn,WindDirection,WindDirectionDegrees,WindSpeedMPH,WindSpeedGustMPH,Humidity,HourlyPrecipIn,Conditions,Clouds,dailyrainin,SoftwareType,DateUTC
2013-09-05 00:00:00,80.2,73.5,30.03,SSE,168,0.0,0.0,80,0.00,,---,0.00,VWS V13.01,2013-09-05 05:00:00,
2013-09-05 00:10:00,80.1,73.3,30.03,SSE,168,0.0,0.0,80,0.00,,---,0.00,VWS V13.01,2013-09-05 05:10:00,
2013-09-05 00:20:00,79.9,73.5,30.03,SSE,168,0.0,0.0,81,0.00,,---,0.00,VWS V13.01,2013-09-05 05:20:00,
2013-09-05 00:30:00,79.7,73.6,30.03,SSE,168,0.0,0.0,82,0.00,,---,0.00,VWS V13.01,2013-09-05 05:30:00,
2013-09-05 00:40:00,79.7,73.6,30.03,SSE,168,0.0,0.0,82,0.00,,---,0.00,VWS V13.01,2013-09-05 05:40:00,
2013-09-05 00:50:00,79.5,73.7,30.03,SSE,168,0.0,0.0,82,0.00,,---,0.00,VWS V13.01,2013-09-05 05:50:00,
2013-09-05 01:00:00,79.3,73.5,30.03,SSE,168,0.0,0.0,82,0.00,,---,0.00,VWS V13.01,2013-09-05 06:00:00,
2013-09-05 01:10:00,79.3,73.8,30.03,SSE,168,0.0,0.0,83,0.00,,---,0.00,VWS V13.01,2013-09-05 06:10:00,
2013-09-05 01:20:00,79.2,73.9,30.03,NE,38,0.0,0.0,84,0.00,,---,0.00,VWS V13.01,2013-09-05 06:20:00,
2013-09-05 01:30:00,79.2,74.5,30.03,NE,38,0.0,0.0,86,0.00,,---,0.00,VWS V13.01,2013-09-05 06:30:00,
2013-09-05 01:40:00,79.2,75.0,30.03,NE,38,0.0,0.0,87,0.00,,---,0.00,VWS V13.01,2013-09-05 06:40:00,
2013-09-05 01:50:00,79.0,74.8,30.03,NE,38,0.0,0.0,87,0.00,,---,0.00,VWS V13.01,2013-09-05 06:50:00,
2013-09-05 02:00:00,78.8,74.7,30.03,NE,38,0.0,0.0,87,0.00,,---,0.00,VWS V13.01,2013-09-05 07:00:00,
2013-09-05 02:10:00,78.6,74.8,30.03,NE,38,0.0,0.0,88,0.00,,---,0.00,VWS V13.01,2013-09-05 07:10:00,
2013-09-05 02:20:00,78.4,74.9,30.03,NE,38,0.0,0.0,89,0.00,,---,0.00,VWS V13.01,2013-09-05 07:20:00,
2013-09-05 02:30:00,78.4,74.9,30.03,NE,38,0.0,0.0,89,0.00,,---,0.00,VWS V13.01,2013-09-05 07:30:00,
2013-09-05 02:40:00,78.3,75.0,30.03,NE,38,0.0,0.0,90,0.00,,---,0.00,VWS V13.01,2013-09-05 07:40:00,
2013-09-05 02:49:00,78.3,75.0,30.03,NE,38,0.0,0.0,90,0.00,,---,0.00,VWS V13.01,2013-09-05 07:49:00,
2013-09-05 03:00:00,78.1,74.8,30.03,NE,38,0.0,0.0,90,0.00,,---,0.00,VWS V13.01,2013-09-05 08:00:00,
2013-09-05 03:10:00,78.3,75.2,30.03,NE,38,0.0,0.0,90,0.00,,---,0.00,VWS V13.01,2013-09-05 08:10:00,
2013-09-05 03:20:00,78.3,75.2,30.03,NE,38,0.0,0.0,90,0.00,,---,0.00,VWS V13.01,2013-09-05 08:20:00,
2013-09-05 03:30:00,78.1,75.0,30.03,NE,38,0.0,0.0,90,0.00,,---,0.00,VWS V13.01,2013-09-05 08:30:00,
2013-09-05 03:40:00,78.1,75.0,30.03,NE,38,0.0,0.0,90,0.00,,---,0.00,VWS V13.01,2013-09-05 08:40:00,
2013-09-05 03:50:00,78.1,75.0,30.03,NE,38,0.0,0.0,90,0.00,,---,0.00,VWS V13.01,2013-09-05 08:50:00,
2013-09-05 04:00:00,77.9,74.9,30.03,NE,38,0.0,0.0,90,0.00,,---,0.00,VWS V13.01,2013-09-05 09:00:00,
2013-09-05 04:10:00,77.9,75.1,30.03,NE,38,0.0,0.0,91,0.00,,---,0.00,VWS V13.01,2013-09-05 09:10:00,
2013-09-05 04:20:00,77.7,74.9,30.03,NE,38,0.0,0.0,91,0.00,,---,0.00,VWS V13.01,2013-09-05 09:20:00,
2013-09-05 04:30:00,77.7,74.9,30.03,NE,38,0.0,0.0,91,0.00,,---,0.00,VWS V13.01,2013-09-05 09:30:00,
2013-09-05 04:40:00,77.7,74.9,30.03,NE,38,0.0,0.0,91,0.00,,---,0.00,VWS V13.01,2013-09-05 09:40:00,
2013-09-05 04:50:00,77.5,74.8,30.03,NE,38,0.0,0.0,91,0.00,,---,0.00,VWS V13.01,2013-09-05 09:50:00,
2013-09-05 05:00:00,77.5,75.0,30.03,NE,38,0.0,0.0,92,0.00,,---,0.00,VWS V13.01,2013-09-05 10:00:00,
2013-09-05 05:10:00,77.5,75.0,30.03,North,1,2.7,3.1,92,0.00,,---,0.00,VWS V13.01,2013-09-05 10:10:00,
2013-09-05 05:20:00,77.7,75.2,30.03,NNE,12,0.0,4.0,92,0.00,,---,0.00,VWS V13.01,2013-09-05 10:20:00,
2013-09-05 05:30:00,77.7,75.5,30.03,North,4,0.0,4.9,93,0.00,,---,0.00,VWS V13.01,2013-09-05 10:30:00,
2013-09-05 05:40:00,77.5,75.3,30.03,North,7,0.0,3.1,93,0.00,,---,0.00,VWS V13.01,2013-09-05 10:40:00,
2013-09-05 05:50:00,77.4,75.1,30.03,North,7,0.0,0.0,93,0.00,,---,0.00,VWS V13.01,2013-09-05 10:50:00,
2013-09-05 06:10:00,77.2,75.2,30.06,North,7,0.0,0.0,94,0.00,,---,0.00,VWS V13.01,2013-09-05 11:10:00,
2013-09-05 06:20:00,77.2,75.2,30.03,North,7,0.0,0.0,94,0.00,,---,0.00,VWS V13.01,2013-09-05 11:20:00,
2013-09-05 06:30:00,77.0,75.0,30.03,North,7,0.0,0.0,94,0.00,,---,0.00,VWS V13.01,2013-09-05 11:30:00,
2013-09-05 06:40:00,77.0,75.0,30.06,North,7,0.0,0.0,94,0.00,,---,0.00,VWS V13.01,2013-09-05 11:40:00,
2013-09-05 06:50:00,77.0,75.0,30.06,North,7,0.0,0.0,94,0.00,,---,0.00,VWS V13.01,2013-09-05 11:50:00,
2013-09-05 07:00:00,77.0,75.3,30.06,North,7,0.0,0.0,94,0.00,,---,0.00,VWS V13.01,2013-09-05 12:00:00,
2013-09-05 07:10:00,77.2,75.4,30.06,North,0,0.0,2.7,94,0.00,,---,0.00,VWS V13.01,2013-09-05 12:10:00,
2013-09-05 07:20:00,77.2,75.4,30.06,North,0,0.0,0.0,94,0.00,,---,0.00,VWS V13.01,2013-09-05 12:20:00,
2013-09-05 07:30:00,77.5,75.8,30.06,North,0,0.0,0.0,94,0.00,,---,0.00,VWS V13.01,2013-09-05 12:30:00,
2013-09-05 07:40:00,78.4,77.0,30.06,NNE,31,0.0,2.2,95,0.00,,---,0.00,VWS V13.01,2013-09-05 12:40:00,
2013-09-05 07:50:00,79.2,77.4,30.09,NNE,30,0.0,0.0,94,0.00,,---,0.00,VWS V13.01,2013-09-05 12:50:00,
2013-09-05 08:00:00,79.9,77.9,30.09,NNE,17,0.0,0.0,94,0.00,,---,0.00,VWS V13.01,2013-09-05 13:00:00,
2013-09-05 08:10:00,80.6,77.8,30.09,NNE,14,0.0,5.4,91,0.00,,---,0.00,VWS V13.01,2013-09-05 13:10:00,
2013-09-05 08:20:00,81.0,77.3,30.09,North,357,3.1,4.0,89,0.00,,---,0.00,VWS V13.01,2013-09-05 13:20:00,
2013-09-05 08:30:00,81.1,76.7,30.09,North,5,2.7,4.0,86,0.00,,---,0.00,VWS V13.01,2013-09-05 13:30:00,
2013-09-05 08:40:00,81.9,76.8,30.09,North,11,6.3,6.3,85,0.00,,---,0.00,VWS V13.01,2013-09-05 13:40:00,
2013-09-05 08:50:00,82.2,76.0,30.09,East,97,4.0,5.8,82,0.00,,---,0.00,VWS V13.01,2013-09-05 13:50:00,
2013-09-05 09:00:00,83.3,76.2,30.09,NNE,16,5.4,5.4,79,0.00,,---,0.00,VWS V13.01,2013-09-05 14:00:00,
2013-09-05 09:10:00,83.5,75.8,30.09,NNE,12,2.7,6.3,78,0.00,,---,0.00,VWS V13.01,2013-09-05 14:10:00,
2013-09-05 09:20:00,83.5,75.4,30.09,ESE,112,5.4,5.4,77,0.00,,---,0.00,VWS V13.01,2013-09-05 14:20:00,
2013-09-05 09:30:00,84.6,76.2,30.09,North,2,2.7,4.0,76,0.00,,---,0.00,VWS V13.01,2013-09-05 14:30:00,
2013-09-05 09:40:00,84.7,75.4,30.09,East,85,4.9,6.3,74,0.00,,---,0.00,VWS V13.01,2013-09-05 14:40:00,
2013-09-05 09:50:00,85.3,75.6,30.09,NE,39,2.2,6.3,73,0.00,,---,0.00,VWS V13.01,2013-09-05 14:50:00,
2013-09-05 10:00:00,85.1,75.1,30.09,NNE,29,2.2,4.0,72,0.00,,---,0.00,VWS V13.01,2013-09-05 15:00:00,
2013-09-05 10:10:00,85.6,75.2,30.09,NNE,19,3.1,6.3,71,0.00,,---,0.00,VWS V13.01,2013-09-05 15:10:00,
2013-09-05 10:20:00,86.2,75.1,30.09,North,11,3.6,5.8,70,0.00,,---,0.00,VWS V13.01,2013-09-05 15:20:00,
2013-09-05 10:30:00,86.7,75.2,30.09,ENE,75,7.6,8.1,69,0.00,,---,0.00,VWS V13.01,2013-09-05 15:30:00,
2013-09-05 10:40:00,87.3,75.1,30.09,NNE,15,5.8,5.8,67,0.00,,---,0.00,VWS V13.01,2013-09-05 15:40:00,
2013-09-05 10:50:00,87.3,74.7,30.09,ENE,73,0.0,5.8,66,0.00,,---,0.00,VWS V13.01,2013-09-05 15:50:00,
2013-09-05 11:00:00,87.3,74.3,30.09,SE,126,3.6,8.1,66,0.00,,---,0.00,VWS V13.01,2013-09-05 16:00:00,
2013-09-05 11:10:00,87.6,74.7,30.09,NE,55,3.6,5.8,66,0.00,,---,0.00,VWS V13.01,2013-09-05 16:10:00,
2013-09-05 11:20:00,87.6,74.7,30.09,North,8,3.6,5.8,66,0.00,,---,0.00,VWS V13.01,2013-09-05 16:20:00,
2013-09-05 11:30:00,88.5,75.2,30.09,East,80,6.7,7.6,65,0.00,,---,0.00,VWS V13.01,2013-09-05 16:30:00,
2013-09-05 11:40:00,88.5,74.8,30.09,NE,49,5.8,6.3,64,0.00,,---,0.00,VWS V13.01,2013-09-05 16:40:00,
2013-09-05 11:50:00,89.1,74.2,30.09,NNW,337,5.4,6.3,62,0.00,,---,0.00,VWS V13.01,2013-09-05 16:50:00,
2013-09-05 12:00:00,89.4,74.1,30.09,NNE,30,5.4,8.7,61,0.00,,---,0.00,VWS V13.01,2013-09-05 17:00:00,
2013-09-05 12:10:00,90.3,74.2,30.09,North,2,3.6,9.6,59,0.00,,---,0.00,VWS V13.01,2013-09-05 17:10:00,
2013-09-05 12:20:00,90.9,73.4,30.09,East,89,6.3,8.3,57,0.00,,---,0.00,VWS V13.01,2013-09-05 17:20:00,
2013-09-05 12:30:00,91.2,73.8,30.06,NNW,341,7.6,10.5,57,0.00,,---,0.00,VWS V13.01,2013-09-05 17:30:00,
2013-09-05 12:40:00,91.0,72.8,30.06,East,93,4.0,6.3,55,0.00,,---,0.00,VWS V13.01,2013-09-05 17:40:00,
2013-09-05 12:50:00,91.0,73.2,30.06,ENE,66,3.1,8.1,56,0.00,,---,0.00,VWS V13.01,2013-09-05 17:50:00,
2013-09-05 13:00:00,91.2,72.9,30.06,North,0,3.1,7.6,55,0.00,,---,0.00,VWS V13.01,2013-09-05 18:00:00,
2013-09-05 13:10:00,91.0,72.8,30.06,NNW,343,4.9,9.6,55,0.00,,---,0.00,VWS V13.01,2013-09-05 18:10:00,
2013-09-05 13:20:00,92.3,72.1,30.06,ESE,109,2.7,5.8,52,0.00,,---,0.00,VWS V13.01,2013-09-05 18:20:00,
2013-09-05 13:30:00,92.3,72.6,30.06,NNE,15,5.4,8.3,53,0.00,,---,0.00,VWS V13.01,2013-09-05 18:30:00,
2013-09-05 13:40:00,92.1,72.0,30.06,NNE,28,2.2,6.3,52,0.00,,---,0.00,VWS V13.01,2013-09-05 18:40:00,
2013-09-05 13:50:00,91.8,71.7,30.06,ESE,102,4.9,10.1,52,0.00,,---,0.00,VWS V13.01,2013-09-05 18:50:00,
2013-09-05 14:00:00,92.8,72.2,30.03,NNE,22,3.6,8.3,51,0.00,,---,0.00,VWS V13.01,2013-09-05 19:00:00,
2013-09-05 14:10:00,93.2,72.0,30.03,NNW,330,4.0,4.9,50,0.00,,---,0.00,VWS V13.01,2013-09-05 19:10:00,
2013-09-05 14:20:00,93.0,71.9,30.03,NE,36,3.6,10.1,50,0.00,,---,0.00,VWS V13.01,2013-09-05 19:20:00,
2013-09-05 14:30:00,93.9,73.2,30.03,East,90,3.6,8.3,51,0.00,,---,0.00,VWS V13.01,2013-09-05 19:30:00,
2013-09-05 14:40:00,93.4,73.1,30.03,South,180,4.9,8.1,52,0.00,,---,0.00,VWS V13.01,2013-09-05 19:40:00,
2013-09-05 14:50:00,91.6,72.8,30.03,SSW,194,3.1,8.1,54,0.00,,---,0.00,VWS V13.01,2013-09-05 19:50:00,
2013-09-05 15:00:00,90.7,74.5,30.03,East,86,5.4,12.8,59,0.00,,---,0.00,VWS V13.01,2013-09-05 20:00:00,
2013-09-05 15:10:00,84.4,72.7,30.03,SW,234,4.0,10.1,68,0.19,,---,0.19,VWS V13.01,2013-09-05 20:10:00,
2013-09-05 15:20:00,80.4,72.8,30.03,SW,216,0.0,5.4,78,0.28,,---,0.28,VWS V13.01,2013-09-05 20:20:00,
2013-09-05 15:30:00,80.2,74.4,30.03,East,92,0.0,0.0,82,0.28,,---,0.28,VWS V13.01,2013-09-05 20:30:00,
2013-09-05 15:40:00,81.0,77.3,30.03,WSW,244,0.0,5.8,89,0.28,,---,0.28,VWS V13.01,2013-09-05 20:40:00,
2013-09-05 15:50:00,80.8,77.7,30.03,SW,229,3.1,5.8,90,0.28,,---,0.28,VWS V13.01,2013-09-05 20:50:00,
2013-09-05 16:00:00,80.2,77.2,30.03,SSW,197,3.6,3.6,90,0.28,,---,0.28,VWS V13.01,2013-09-05 21:00:00,
2013-09-05 16:10:00,79.9,76.8,30.03,WSW,252,0.0,0.0,90,0.28,,---,0.28,VWS V13.01,2013-09-05 21:10:00,
2013-09-05 16:20:00,79.7,76.9,30.00,WSW,253,0.0,0.0,91,0.09,,---,0.28,VWS V13.01,2013-09-05 21:20:00,
2013-09-05 16:30:00,80.2,77.7,30.00,WSW,253,0.0,0.0,92,0.00,,---,0.28,VWS V13.01,2013-09-05 21:30:00,
2013-09-05 16:40:00,79.9,77.1,30.00,SW,235,0.0,0.0,91,0.00,,---,0.28,VWS V13.01,2013-09-05 21:40:00,
2013-09-05 16:50:00,79.9,76.8,30.00,SW,229,0.0,0.0,90,0.00,,---,0.28,VWS V13.01,2013-09-05 21:50:00,
2013-09-05 17:00:00,80.1,76.7,30.00,SW,229,0.0,0.0,90,0.00,,---,0.28,VWS V13.01,2013-09-05 22:00:00,
2013-09-05 17:10:00,80.8,77.7,30.00,SW,229,0.0,0.0,90,0.00,,---,0.28,VWS V13.01,2013-09-05 22:10:00,
2013-09-05 17:20:00,81.5,78.7,30.00,SW,229,0.0,0.0,91,0.00,,---,0.28,VWS V13.01,2013-09-05 22:20:00,
2013-09-05 17:30:00,81.7,77.5,30.00,ESE,106,9.2,15.4,87,0.00,,---,0.28,VWS V13.01,2013-09-05 22:30:00,
2013-09-05 17:40:00,81.0,73.3,30.03,ESE,121,14.1,15.4,78,0.00,,---,0.28,VWS V13.01,2013-09-05 22:40:00,
2013-09-05 17:50:00,77.7,70.5,30.03,SE,126,8.7,19.2,78,0.04,,---,0.31,VWS V13.01,2013-09-05 22:50:00,
2013-09-05 18:00:00,75.6,71.5,30.06,South,172,10.1,19.2,87,0.54,,---,0.82,VWS V13.01,2013-09-05 23:00:00,
2013-09-05 18:10:00,75.0,72.8,30.06,SSW,209,5.8,6.3,93,0.71,,---,0.98,VWS V13.01,2013-09-05 23:10:00,
2013-09-05 18:20:00,75.2,73.2,30.03,SSW,209,5.8,5.8,94,0.75,,---,1.02,VWS V13.01,2013-09-05 23:20:00,
2013-09-05 18:30:00,75.9,74.7,30.03,SSW,209,5.8,5.8,96,0.75,,---,1.02,VWS V13.01,2013-09-05 23:30:00,
2013-09-05 18:40:00,75.9,74.9,30.03,SSW,209,5.8,5.8,97,0.76,,---,1.03,VWS V13.01,2013-09-05 23:40:00,
2013-09-05 18:50:00,76.5,75.7,30.03,SSW,209,5.8,5.8,98,0.76,,---,1.03,VWS V13.01,2013-09-05 23:50:00,
2013-09-05 19:00:00,76.6,76.2,30.03,SSW,209,5.8,5.8,98,0.72,,---,1.03,VWS V13.01,2013-09-06 00:00:00,
2013-09-05 19:10:00,77.0,76.5,30.03,SSW,209,5.8,5.8,98,0.22,,---,1.03,VWS V13.01,2013-09-06 00:10:00,
2013-09-05 19:20:00,77.4,76.9,30.03,SSW,209,5.8,5.8,98,0.05,,---,1.03,VWS V13.01,2013-09-06 00:20:00,
2013-09-05 19:30:00,77.5,77.1,30.03,SSW,209,5.8,5.8,98,0.01,,---,1.03,VWS V13.01,2013-09-06 00:30:00,
2013-09-05 19:40:00,77.7,77.5,30.03,SSW,209,5.8,5.8,99,0.01,,---,1.03,VWS V13.01,2013-09-06 00:40:00,
2013-09-05 19:50:00,77.7,77.5,30.03,SSW,209,5.8,5.8,99,0.00,,---,1.03,VWS V13.01,2013-09-06 00:50:00,
2013-09-05 20:00:00,77.7,77.7,30.03,SSW,209,5.8,5.8,100,0.00,,---,1.03,VWS V13.01,2013-09-06 01:00:00,
2013-09-05 20:10:00,78.1,78.1,30.03,SSW,209,5.8,5.8,100,0.00,,---,1.03,VWS V13.01,2013-09-06 01:10:00,
2013-09-05 20:20:00,78.4,78.4,30.03,SSW,209,5.8,5.8,100,0.00,,---,1.03,VWS V13.01,2013-09-06 01:20:00,
2013-09-05 20:30:00,78.6,78.6,30.03,SSW,209,5.8,5.8,100,0.00,,---,1.03,VWS V13.01,2013-09-06 01:30:00,
2013-09-05 20:40:00,78.8,78.8,30.03,SSW,209,5.8,5.8,100,0.00,,---,1.03,VWS V13.01,2013-09-06 01:40:00,
2013-09-05 20:50:00,79.0,79.0,30.06,SSW,209,5.8,5.8,100,0.00,,---,1.03,VWS V13.01,2013-09-06 01:50:00,
2013-09-05 21:00:00,79.2,79.2,30.06,SSW,209,5.8,5.8,100,0.00,,---,1.03,VWS V13.01,2013-09-06 02:00:00,
2013-09-05 21:10:00,79.2,79.2,30.06,SSW,209,5.8,5.8,100,0.00,,---,1.03,VWS V13.01,2013-09-06 02:10:00,
2013-09-05 21:20:00,79.2,79.2,30.06,SSW,209,5.8,5.8,100,0.00,,---,1.03,VWS V13.01,2013-09-06 02:20:00,
2013-09-05 21:30:00,79.3,79.3,30.06,SSW,209,5.8,5.8,100,0.00,,---,1.03,VWS V13.01,2013-09-06 02:30:00,
2013-09-05 21:40:00,79.5,79.5,30.03,SSW,209,5.8,5.8,100,0.00,,---,1.03,VWS V13.01,2013-09-06 02:40:00,
2013-09-05 21:50:00,79.5,79.5,30.06,SSW,209,5.8,5.8,100,0.00,,---,1.03,VWS V13.01,2013-09-06 02:50:00,
2013-09-05 22:10:00,79.7,79.7,30.06,North,0,0.0,0.0,100,0.00,,---,1.03,VWS V13.01,2013-09-06 03:10:00,
2013-09-05 22:20:00,79.3,79.3,30.06,North,0,0.0,0.0,100,0.00,,---,1.03,VWS V13.01,2013-09-06 03:20:00,
2013-09-05 22:30:00,79.3,79.3,30.06,North,0,0.0,0.0,100,0.00,,---,1.03,VWS V13.01,2013-09-06 03:30:00,
2013-09-05 22:40:00,79.3,79.3,30.06,North,0,0.0,0.0,100,0.00,,---,1.03,VWS V13.01,2013-09-06 03:40:00,
2013-09-05 22:50:00,79.5,79.5,30.06,North,0,0.0,0.0,100,0.00,,---,1.03,VWS V13.01,2013-09-06 03:50:00,
2013-09-05 23:00:00,79.5,79.5,30.06,North,0,0.0,0.0,100,0.00,,---,1.03,VWS V13.01,2013-09-06 04:00:00,
2013-09-05 23:10:00,79.3,79.3,30.06,North,0,0.0,0.0,100,0.00,,---,1.03,VWS V13.01,2013-09-06 04:10:00,
2013-09-05 23:20:00,79.2,79.2,30.06,North,0,0.0,0.0,100,0.00,,---,1.03,VWS V13.01,2013-09-06 04:20:00,
2013-09-05 23:30:00,79.2,79.2,30.06,North,0,0.0,0.0,100,0.00,,---,1.03,VWS V13.01,2013-09-06 04:30:00,
2013-09-05 23:40:00,79.2,79.2,30.06,North,0,0.0,0.0,100,0.00,,---,1.03,VWS V13.01,2013-09-06 04:40:00,
2013-09-05 23:50:00,79.0,79.0,30.06,North,0,0.0,0.0,100,0.00,,---,1.03,VWS V13.01,2013-09-06 04:50:00,